Time;durP1;ratioP1;P1;durP2;ratioP2;P2;SDS_P1;SDS_P2;PMS_P1;PMS_P2;Temp;Humidity;BMP_temperature;BMP_pressure;BME280_temperature;BME280_humidity;BME280_pressure;Samples;Min_cycle;Max_cycle;Signal;HPM_P1;HPM_P2
2021/05/02 00:01:51;;;;;;;64.28;37.35;;;;;;;5.23;98.23;101264.41;5022048;28;20045;-77
2021/05/02 00:04:16;;;;;;;60.00;34.67;;;;;;;5.17;99.23;101270.00;5018316;28;20422;-77
2021/05/02 00:06:42;;;;;;;65.30;36.60;;;;;;;5.04;98.56;101267.34;5009154;28;20077;-76
2021/05/02 00:09:09;;;;;;;64.80;36.47;;;;;;;5.07;98.59;101261.97;5012390;28;20502;-76
2021/05/02 00:11:34;;;;;;;62.55;35.97;;;;;;;4.99;98.71;101253.81;5015822;28;20044;-78
2021/05/02 00:14:01;;;;;;;63.78;35.03;;;;;;;4.91;98.56;101258.66;5031831;28;20032;-77
2021/05/02 00:16:28;;;;;;;73.20;40.28;;;;;;;4.85;98.81;101257.28;5041777;28;20623;-79
2021/05/02 00:18:54;;;;;;;71.88;39.25;;;;;;;4.80;98.87;101252.41;5040090;28;20052;-77
2021/05/02 00:21:20;;;;;;;72.75;40.55;;;;;;;4.90;99.07;101259.59;5013788;28;20811;-80
2021/05/02 00:23:46;;;;;;;69.53;38.50;;;;;;;4.85;98.83;101250.31;5010390;28;20041;-78
2021/05/02 00:26:13;;;;;;;72.72;40.33;;;;;;;4.96;99.53;101247.06;5012761;28;20045;-77
2021/05/02 00:28:45;;;;;;;67.75;38.33;;;;;;;5.06;98.82;101250.72;5028726;28;20157;-78
2021/05/02 00:31:12;;;;;;;71.93;40.22;;;;;;;5.04;99.12;101249.97;4995318;28;20056;-77
2021/05/02 00:33:40;;;;;;;65.88;38.15;;;;;;;5.04;99.46;101243.97;5010379;28;20124;-79
2021/05/02 00:36:06;;;;;;;71.25;40.85;;;;;;;5.11;99.75;101257.41;5035297;28;20052;-77
2021/05/02 00:38:36;;;;;;;70.25;40.28;;;;;;;5.27;99.04;101258.06;5027665;28;20102;-78
2021/05/02 00:41:07;;;;;;;69.00;39.47;;;;;;;5.20;99.39;101252.44;5043316;28;20083;-76
2021/05/02 00:43:44;;;;;;;70.97;38.22;;;;;;;5.23;99.37;101252.22;5027940;28;20429;-78
2021/05/02 00:46:17;;;;;;;70.22;39.35;;;;;;;5.24;99.05;101250.47;5018923;28;20060;-77
2021/05/02 00:48:49;;;;;;;68.68;38.47;;;;;;;5.29;99.08;101255.38;5034190;28;20052;-79
2021/05/02 00:51:16;;;;;;;78.22;42.28;;;;;;;5.31;99.75;101258.72;5030840;28;20514;-77
2021/05/02 00:53:53;;;;;;;74.35;39.63;;;;;;;5.31;99.06;101256.09;4998735;28;20069;-78
2021/05/02 00:56:24;;;;;;;74.18;39.88;;;;;;;5.33;99.76;101256.84;5039891;28;20785;-79
2021/05/02 00:58:59;;;;;;;66.78;38.05;;;;;;;5.37;99.67;101258.31;5032273;28;20044;-77
2021/05/02 01:01:29;;;;;;;72.82;42.25;;;;;;;5.31;99.58;101256.94;5033795;28;20051;-77
2021/05/02 01:03:59;;;;;;;72.72;40.47;;;;;;;5.35;99.62;101261.03;5004379;28;20111;-77
2021/05/02 01:06:29;;;;;;;73.65;41.53;;;;;;;5.36;99.60;101254.88;5018664;28;20047;-76
2021/05/02 01:08:57;;;;;;;74.63;41.38;;;;;;;5.44;99.15;101255.22;5026424;28;20041;-78
2021/05/02 01:11:25;;;;;;;74.05;41.00;;;;;;;5.49;99.11;101254.09;5036365;28;20041;-76
2021/05/02 01:13:55;;;;;;;79.20;43.95;;;;;;;5.66;99.39;101259.00;5023164;28;20114;-76
2021/05/02 01:16:24;;;;;;;85.85;44.75;;;;;;;5.67;99.47;101258.06;5011481;28;20041;-77
2021/05/02 01:18:52;;;;;;;80.53;44.30;;;;;;;5.61;99.68;101259.31;5011768;28;20473;-77
2021/05/02 01:21:18;;;;;;;71.85;41.55;;;;;;;5.54;99.46;101254.59;4996824;28;20061;-75
2021/05/02 01:23:44;;;;;;;76.20;42.47;;;;;;;5.53;99.82;101251.16;4996167;28;20688;-78
2021/05/02 01:26:13;;;;;;;88.45;46.42;;;;;;;5.44;99.64;101257.81;5027634;28;20046;-79
2021/05/02 01:28:41;;;;;;;78.35;42.33;;;;;;;5.32;99.92;101245.59;5012756;28;20049;-78
2021/05/02 01:31:07;;;;;;;76.30;42.17;;;;;;;5.35;99.51;101249.75;5002184;28;20045;-78
2021/05/02 01:33:33;;;;;;;72.13;40.55;;;;;;;5.33;99.55;101249.88;5012213;28;20047;-77
2021/05/02 01:35:59;;;;;;;70.45;40.15;;;;;;;5.33;99.48;101254.25;5007464;28;20042;-78
2021/05/02 01:38:25;;;;;;;69.20;39.80;;;;;;;5.36;99.65;101256.66;5022985;28;20056;-77
2021/05/02 01:40:54;;;;;;;72.32;40.75;;;;;;;5.36;99.48;101260.06;5025005;28;20037;-79
2021/05/02 01:43:21;;;;;;;68.68;39.17;;;;;;;5.34;99.12;101253.31;5054150;28;20063;-78
2021/05/02 01:45:57;;;;;;;82.15;43.60;;;;;;;5.51;99.34;101265.22;5090751;27;21245;-76
2021/05/02 01:48:23;;;;;;;76.50;44.10;;;;;;;5.59;99.65;101263.75;5024070;28;20061;-79
2021/05/02 01:51:08;;;;;;;78.05;41.83;;;;;;;5.58;99.45;101267.31;5001336;28;20052;-80
2021/05/02 01:53:36;;;;;;;76.80;40.28;;;;;;;5.50;99.35;101246.19;4990783;28;20041;-77
2021/05/02 01:56:06;;;;;;;75.63;42.92;;;;;;;5.46;99.57;101248.16;5025009;28;20054;-78
2021/05/02 01:58:34;;;;;;;80.75;44.47;;;;;;;5.41;100.00;101250.22;5016203;28;20042;-77
2021/05/02 02:01:03;;;;;;;74.00;40.05;;;;;;;5.39;100.00;101251.25;5004016;28;20057;-79
2021/05/02 02:03:30;;;;;;;73.28;41.47;;;;;;;5.35;99.85;101250.63;5001651;28;20045;-77
2021/05/02 02:05:55;;;;;;;80.15;42.97;;;;;;;5.34;100.00;101235.09;5027754;28;20215;-79
2021/05/02 02:08:21;;;;;;;76.32;42.67;;;;;;;5.34;100.00;101242.91;5008247;28;20042;-79
2021/05/02 02:10:48;;;;;;;68.30;37.92;;;;;;;5.33;100.00;101252.50;5024459;28;20049;-78
2021/05/02 02:13:16;;;;;;;73.07;40.30;;;;;;;5.36;99.75;101246.25;5009115;28;20037;-77
2021/05/02 02:15:42;;;;;;;65.32;37.83;;;;;;;5.34;99.30;101248.94;5008276;28;20049;-76
2021/05/02 02:18:09;;;;;;;69.78;39.25;;;;;;;5.31;99.64;101245.69;5006803;28;20183;-78
2021/05/02 02:20:39;;;;;;;71.80;40.20;;;;;;;5.28;99.58;101245.91;5005900;28;20049;-77
2021/05/02 02:23:11;;;;;;;67.60;39.08;;;;;;;5.26;99.69;101239.03;5022391;28;20042;-76
2021/05/02 02:25:40;;;;;;;;;;;;;;;5.26;100.00;101251.22;5026320;28;20486;-78
2021/05/02 02:28:10;;;;;;;73.93;41.10;;;;;;;5.22;99.82;101247.97;5035825;28;19928;-77
2021/05/02 02:30:38;;;;;;;70.25;39.63;;;;;;;5.22;99.62;101240.19;5002918;28;20046;-78
2021/05/02 02:33:06;;;;;;;75.18;41.28;;;;;;;5.18;99.90;101241.31;4998962;28;20456;-78
2021/05/02 02:35:37;;;;;;;76.60;40.85;;;;;;;5.20;99.62;101238.63;4996177;28;20038;-78
2021/05/02 02:38:05;;;;;;;65.50;36.58;;;;;;;5.18;100.00;101240.47;5000596;28;20105;-79
2021/05/02 02:40:37;;;;;;;67.70;37.55;;;;;;;5.23;99.91;101252.22;4986712;28;20613;-80
2021/05/02 02:43:03;;;;;;;66.15;36.50;;;;;;;5.21;99.34;101251.50;5017103;28;20403;-77
2021/05/02 02:45:33;;;;;;;63.70;36.83;;;;;;;5.16;100.00;101247.53;5023732;28;20569;-78
2021/05/02 02:48:02;;;;;;;76.00;39.92;;;;;;;5.24;99.68;101253.91;5006096;28;20065;-78
2021/05/02 02:50:29;;;;;;;65.40;39.08;;;;;;;5.20;100.00;101254.22;5001370;28;20063;-77
2021/05/02 02:52:56;;;;;;;65.28;38.00;;;;;;;5.17;99.43;101255.22;5005813;28;20041;-77
2021/05/02 02:55:25;;;;;;;69.72;38.30;;;;;;;5.13;99.61;101255.53;5020898;28;20394;-76
2021/05/02 02:58:01;;;;;;;70.13;39.53;;;;;;;5.10;99.42;101251.34;4977010;28;20050;-78
2021/05/02 03:00:31;;;;;;;64.78;36.40;;;;;;;5.10;99.99;101251.34;4988320;28;20084;-77
2021/05/02 03:03:08;;;;;;;64.85;37.45;;;;;;;5.15;99.89;101257.09;5005968;28;20093;-79
2021/05/02 03:05:36;;;;;;;60.80;36.45;;;;;;;5.14;99.99;101247.66;4991922;28;20081;-77
2021/05/02 03:08:04;;;;;;;72.13;40.90;;;;;;;5.07;100.00;101249.81;4992663;28;20058;-76
2021/05/02 03:10:31;;;;;;;66.35;40.10;;;;;;;5.15;100.00;101258.88;4992733;28;20618;-76
2021/05/02 03:12:58;;;;;;;63.40;37.75;;;;;;;5.16;99.97;101255.34;5009104;28;20475;-78
2021/05/02 03:15:24;;;;;;;71.13;38.85;;;;;;;5.11;100.00;101260.84;5011279;28;20084;-77
2021/05/02 03:18:03;;;;;;;66.88;39.38;;;;;;;5.05;99.80;101256.88;5000485;28;20073;-77
2021/05/02 03:20:33;;;;;;;65.85;37.28;;;;;;;5.07;100.00;101264.56;5000172;28;20043;-77
2021/05/02 03:23:05;;;;;;;66.53;38.33;;;;;;;5.04;99.69;101262.16;4999352;28;20054;-76
2021/05/02 03:25:34;;;;;;;63.25;37.42;;;;;;;4.98;100.00;101254.75;5015720;28;20053;-77
2021/05/02 03:28:03;;;;;;;62.92;38.33;;;;;;;5.02;99.67;101262.25;5012984;28;20058;-78
2021/05/02 03:30:29;;;;;;;65.43;37.72;;;;;;;4.98;99.29;101258.19;5006470;28;20042;-76
2021/05/02 03:32:56;;;;;;;59.80;36.40;;;;;;;4.95;99.47;101260.97;5010965;28;20496;-79
2021/05/02 03:35:30;;;;;;;62.38;36.72;;;;;;;4.94;99.79;101264.50;5011454;28;20045;-77
2021/05/02 03:38:09;;;;;;;64.40;38.90;;;;;;;4.85;99.74;101262.50;5012850;28;20776;-79
2021/05/02 03:40:35;;;;;;;64.55;38.17;;;;;;;4.80;99.53;101268.00;5008860;28;20053;-79
2021/05/02 03:43:01;;;;;;;65.47;40.50;;;;;;;4.81;99.50;101261.03;4992485;28;20139;-79
2021/05/02 03:45:26;;;;;;;63.65;36.92;;;;;;;4.76;99.29;101269.09;5012401;28;20511;-78
2021/05/02 03:47:52;;;;;;;59.95;36.50;;;;;;;4.75;99.29;101275.25;5012525;28;20062;-79
2021/05/02 03:50:17;;;;;;;69.97;39.08;;;;;;;4.86;99.42;101274.56;5012553;28;20622;-76
2021/05/02 03:52:43;;;;;;;63.83;38.70;;;;;;;4.72;99.11;101275.41;4990232;28;20046;-77
2021/05/02 03:55:08;;;;;;;62.63;38.25;;;;;;;4.68;99.38;101274.78;5009691;28;20181;-77
2021/05/02 03:57:34;;;;;;;63.70;38.25;;;;;;;4.68;99.40;101279.97;5016616;28;20045;-77
2021/05/02 03:59:59;;;;;;;69.03;41.40;;;;;;;4.69;99.26;101286.03;5011632;28;20057;-78
2021/05/02 04:02:26;;;;;;;71.28;41.05;;;;;;;4.82;99.29;101280.88;5011944;28;20512;-77
2021/05/02 04:04:51;;;;;;;69.53;40.47;;;;;;;4.66;99.06;101281.00;5023264;28;20045;-77
2021/05/02 04:07:17;;;;;;;69.80;39.22;;;;;;;4.58;99.21;101285.84;4993130;28;20084;-76
2021/05/02 04:09:46;;;;;;;62.13;36.58;;;;;;;4.54;99.19;101284.34;5002725;28;20049;-77
2021/05/02 04:12:12;;;;;;;61.67;37.28;;;;;;;4.49;99.39;101280.28;5024683;28;20161;-77
2021/05/02 04:14:37;;;;;;;66.55;38.45;;;;;;;4.52;99.03;101289.66;5008202;28;20116;-79
2021/05/02 04:17:10;;;;;;;64.82;38.40;;;;;;;4.51;99.23;101280.19;5003283;28;20060;-79
2021/05/02 04:19:40;;;;;;;65.03;36.28;;;;;;;4.52;99.09;101288.81;4990365;28;20046;-77
2021/05/02 04:22:07;;;;;;;59.97;34.88;;;;;;;4.48;98.71;101288.16;5002799;28;20038;-78
2021/05/02 04:24:33;;;;;;;63.45;36.95;;;;;;;4.52;99.37;101283.59;4993927;28;20065;-79
2021/05/02 04:27:00;;;;;;;59.75;36.33;;;;;;;4.54;99.11;101287.78;5012294;28;20138;-79
2021/05/02 04:29:28;;;;;;;65.63;38.22;;;;;;;4.49;99.22;101277.66;5004725;28;20124;-80
2021/05/02 04:31:54;;;;;;;75.13;41.28;;;;;;;4.56;99.13;101293.72;4995982;28;20048;-78
2021/05/02 04:34:20;;;;;;;72.00;40.70;;;;;;;4.54;99.80;101284.34;5010911;28;20038;-78
2021/05/02 04:36:47;;;;;;;79.95;41.47;;;;;;;4.61;99.47;101289.06;4997854;28;20439;-77
2021/05/02 04:39:13;;;;;;;78.20;42.90;;;;;;;4.70;99.83;101298.06;5043233;28;20052;-78
2021/05/02 04:41:38;;;;;;;79.50;43.13;;;;;;;4.67;99.99;101298.25;5011052;28;20527;-78
2021/05/02 04:44:04;;;;;;;99.60;47.80;;;;;;;4.71;99.56;101286.75;4998522;28;20145;-76
2021/05/02 04:46:29;;;;;;;98.25;49.83;;;;;;;4.80;99.92;101295.72;4998959;28;20046;-78
2021/05/02 04:48:55;;;;;;;111.00;53.67;;;;;;;4.87;99.35;101304.81;4990721;28;20042;-79
2021/05/02 04:51:21;;;;;;;100.95;49.05;;;;;;;4.82;99.79;101297.31;5037042;28;20041;-78
2021/05/02 04:53:47;;;;;;;95.28;50.25;;;;;;;4.91;99.46;101302.88;5007773;28;20045;-78
2021/05/02 04:56:13;;;;;;;112.00;54.53;;;;;;;4.97;99.96;101299.88;4991766;28;20053;-77
2021/05/02 04:58:39;;;;;;;119.10;59.20;;;;;;;5.07;99.69;101307.00;4991083;28;20779;-78
2021/05/02 05:01:06;;;;;;;103.18;53.90;;;;;;;5.13;99.90;101313.59;4968276;28;20038;-76
2021/05/02 05:03:32;;;;;;;105.75;52.75;;;;;;;5.16;99.82;101308.19;4999374;28;20046;-75
2021/05/02 05:05:58;;;;;;;111.28;57.58;;;;;;;5.28;99.77;101306.56;4996941;28;20056;-78
2021/05/02 05:08:23;;;;;;;108.47;54.92;;;;;;;5.30;99.72;101309.91;4991576;28;20508;-79
2021/05/02 05:10:49;;;;;;;109.28;54.78;;;;;;;5.33;99.54;101312.31;5016120;28;20117;-78
2021/05/02 05:13:14;;;;;;;111.43;55.15;;;;;;;5.38;99.89;101315.44;5035205;28;20049;-77
2021/05/02 05:15:40;;;;;;;104.30;52.45;;;;;;;5.38;99.36;101299.00;5008220;28;20539;-76
2021/05/02 05:18:05;;;;;;;101.93;51.88;;;;;;;5.49;99.79;101317.34;5000324;28;20037;-78
2021/05/02 05:20:31;;;;;;;87.32;48.33;;;;;;;5.53;100.00;101318.00;4983859;28;20153;-77
2021/05/02 05:22:56;;;;;;;95.95;49.50;;;;;;;5.60;99.62;101324.47;5001339;28;20515;-79
2021/05/02 05:25:22;;;;;;;85.05;48.08;;;;;;;5.59;99.49;101320.19;4995146;28;20143;-78
2021/05/02 05:27:47;;;;;;;86.95;48.85;;;;;;;5.70;98.97;101324.69;5027236;28;20057;-79
2021/05/02 05:30:13;;;;;;;82.55;45.03;;;;;;;5.72;99.02;101331.47;5011993;28;20044;-79
2021/05/02 05:32:39;;;;;;;79.38;46.15;;;;;;;5.78;98.55;101341.50;5026706;28;20033;-76
2021/05/02 05:35:06;;;;;;;76.00;45.13;;;;;;;5.83;98.53;101336.81;4997719;28;20369;-77
2021/05/02 05:37:31;;;;;;;76.65;44.90;;;;;;;5.85;98.54;101347.94;5013021;28;20037;-77
2021/05/02 05:39:57;;;;;;;82.00;45.60;;;;;;;5.83;97.77;101343.78;4993225;28;20117;-78
2021/05/02 05:42:22;;;;;;;70.15;42.75;;;;;;;5.89;97.90;101348.56;5020595;28;20056;-80
2021/05/02 05:44:48;;;;;;;74.10;43.83;;;;;;;6.01;98.10;101357.41;4989917;28;20049;-75
2021/05/02 05:47:13;;;;;;;74.03;44.30;;;;;;;6.08;97.98;101356.03;5024401;28;20045;-77
2021/05/02 05:49:40;;;;;;;65.90;41.45;;;;;;;6.16;97.70;101355.53;4973413;28;20475;-77
2021/05/02 05:52:09;;;;;;;63.00;39.45;;;;;;;6.21;97.77;101351.66;4999264;28;20046;-78
2021/05/02 05:54:36;;;;;;;66.68;40.47;;;;;;;6.24;96.79;101355.84;5005145;28;20046;-77
2021/05/02 05:57:02;;;;;;;59.33;37.78;;;;;;;6.39;96.28;101349.59;5009687;28;20054;-77
2021/05/02 05:59:28;;;;;;;55.67;35.83;;;;;;;6.47;94.49;101350.84;5005698;28;20509;-78
2021/05/02 06:01:53;;;;;;;52.85;34.70;;;;;;;6.49;95.61;101356.81;4988624;28;20049;-78
2021/05/02 06:04:19;;;;;;;50.00;34.42;;;;;;;6.53;94.70;101350.44;4992959;28;20073;-78
2021/05/02 06:06:44;;;;;;;46.80;32.40;;;;;;;6.66;93.93;101358.25;4988967;28;20471;-76
2021/05/02 06:09:10;;;;;;;46.08;31.52;;;;;;;6.65;92.10;101362.63;5004470;28;20050;-76
2021/05/02 06:11:36;;;;;;;43.70;31.00;;;;;;;6.61;92.92;101362.00;5004898;28;20046;-76
2021/05/02 06:14:03;;;;;;;46.95;31.58;;;;;;;6.63;93.40;101357.53;4987548;28;20373;-76
2021/05/02 06:16:30;;;;;;;52.65;33.38;;;;;;;6.70;95.40;101362.31;5001771;28;20512;-77
2021/05/02 06:18:56;;;;;;;45.60;30.52;;;;;;;6.79;94.59;101364.28;4987369;28;20112;-77
2021/05/02 06:21:23;;;;;;;40.83;27.38;;;;;;;6.90;92.57;101372.19;4986295;28;20045;-76
2021/05/02 06:23:50;;;;;;;40.97;27.63;;;;;;;6.92;92.71;101366.88;5020456;28;20045;-79
2021/05/02 06:26:18;;;;;;;42.50;28.52;;;;;;;6.91;92.02;101366.03;4993825;28;20068;-80
2021/05/02 06:28:44;;;;;;;42.75;28.85;;;;;;;6.93;92.66;101366.78;5004107;28;20038;-78
2021/05/02 06:31:11;;;;;;;38.70;27.42;;;;;;;6.98;92.21;101361.22;5006367;28;20038;-78
2021/05/02 06:33:37;;;;;;;40.78;27.80;;;;;;;7.19;91.74;101374.50;5009105;28;20067;-76
2021/05/02 06:36:03;;;;;;;37.92;27.35;;;;;;;7.30;93.46;101365.94;4993377;28;20050;-78
2021/05/02 06:38:28;;;;;;;36.65;26.10;;;;;;;7.38;90.66;101361.84;5006039;28;20052;-78
2021/05/02 06:40:54;;;;;;;35.67;25.05;;;;;;;7.65;90.16;101357.31;5008708;28;20049;-77
2021/05/02 06:43:20;;;;;;;39.08;26.40;;;;;;;7.59;89.46;101364.66;5010132;28;20053;-76
2021/05/02 06:45:45;;;;;;;32.63;24.17;;;;;;;7.71;89.03;101349.03;5012158;28;20371;-76
2021/05/02 06:48:11;;;;;;;36.88;25.30;;;;;;;7.77;88.76;101359.03;4998281;28;20049;-77
2021/05/02 06:50:36;;;;;;;36.60;25.40;;;;;;;7.72;88.94;101361.13;5008784;28;20038;-79
2021/05/02 06:53:02;;;;;;;33.55;24.85;;;;;;;7.71;88.58;101362.91;4980251;28;20055;-74
2021/05/02 06:55:27;;;;;;;30.98;23.23;;;;;;;7.80;87.65;101358.81;4995319;28;20037;-78
2021/05/02 06:57:55;;;;;;;34.40;24.58;;;;;;;7.91;88.75;101355.38;5026927;28;20054;-77
2021/05/02 07:00:21;;;;;;;32.75;23.35;;;;;;;7.94;85.90;101363.00;5022630;28;20046;-79
2021/05/02 07:02:46;;;;;;;31.83;23.15;;;;;;;7.92;85.17;101363.09;5015172;28;20026;-76
2021/05/02 07:05:12;;;;;;;35.03;24.85;;;;;;;8.22;87.05;101367.00;4989738;28;20054;-77
2021/05/02 07:07:37;;;;;;;31.35;22.95;;;;;;;8.62;86.78;101369.19;5024756;28;20446;-78
2021/05/02 07:10:04;;;;;;;29.48;21.30;;;;;;;8.53;83.39;101362.91;5009998;28;20113;-76
2021/05/02 07:26:38;;;;;;;27.35;19.25;;;;;;;9.16;81.64;101370.25;5131159;28;20076;-78
2021/05/02 07:47:11;;;;;;;23.95;16.85;;;;;;;9.08;79.61;101373.47;5065372;28;20056;-76
2021/05/02 08:07:22;;;;;;;19.58;14.60;;;;;;;9.68;74.55;101389.63;5044489;28;20064;-76
2021/05/02 08:09:47;;;;;;;17.45;14.07;;;;;;;9.85;73.04;101382.16;5026788;28;20033;-76
2021/05/02 08:12:13;;;;;;;14.48;12.13;;;;;;;9.93;72.73;101382.38;5010520;28;20037;-76
2021/05/02 08:14:39;;;;;;;16.40;13.13;;;;;;;9.94;72.58;101381.41;5010241;28;20407;-76
2021/05/02 08:17:04;;;;;;;22.35;15.48;;;;;;;9.60;73.78;101386.78;5004288;28;20053;-77
2021/05/02 08:19:30;;;;;;;20.42;14.75;;;;;;;10.04;72.92;101391.94;4994597;28;20041;-78
2021/05/02 08:21:55;;;;;;;14.32;11.82;;;;;;;10.13;70.38;101389.41;5030060;28;20052;-77
2021/05/02 08:24:21;;;;;;;17.80;12.70;;;;;;;9.89;70.63;101381.78;5016154;28;20048;-76
2021/05/02 08:26:47;;;;;;;15.43;12.10;;;;;;;9.92;70.10;101399.03;4989256;28;20045;-77
2021/05/02 08:29:12;;;;;;;19.33;13.38;;;;;;;9.99;69.91;101389.72;5023747;28;20036;-77
2021/05/02 08:31:38;;;;;;;15.55;12.55;;;;;;;10.17;69.38;101395.25;4975849;28;20057;-80
2021/05/02 08:34:04;;;;;;;20.25;13.95;;;;;;;10.24;70.58;101399.00;5026303;28;20750;-78
2021/05/02 08:36:31;;;;;;;16.67;13.02;;;;;;;10.03;68.97;101398.16;5013550;28;20049;-78
2021/05/02 08:38:57;;;;;;;17.08;13.45;;;;;;;10.09;69.36;101393.22;5029873;28;20094;-77
2021/05/02 08:41:22;;;;;;;17.60;13.27;;;;;;;10.17;69.49;101404.88;5003698;28;20041;-76
2021/05/02 08:43:51;;;;;;;14.90;11.23;;;;;;;10.27;69.07;101397.91;4990412;28;20049;-76
2021/05/02 08:46:16;;;;;;;12.73;10.90;;;;;;;10.37;65.62;101400.63;4988588;28;20059;-76
2021/05/02 08:48:42;;;;;;;16.35;11.35;;;;;;;10.18;66.96;101394.28;5002815;28;20041;-77
2021/05/02 08:51:07;;;;;;;11.23;9.77;;;;;;;10.12;67.78;101403.47;4990236;28;20056;-78
2021/05/02 08:53:33;;;;;;;10.55;9.15;;;;;;;10.11;65.95;101396.59;5005221;28;20068;-75
2021/05/02 08:56:01;;;;;;;11.23;9.07;;;;;;;10.14;66.95;101390.25;5002876;28;20180;-78
2021/05/02 08:58:27;;;;;;;53.30;9.90;;;;;;;10.68;69.69;101397.06;4978707;28;20419;-78
2021/05/02 09:00:56;;;;;;;11.25;7.93;;;;;;;10.61;66.02;101397.72;4993614;28;20037;-78
2021/05/02 09:03:47;;;;;;;9.60;8.05;;;;;;;10.64;67.18;101397.44;5078996;27;20429;-77
2021/05/02 09:06:24;;;;;;;8.88;7.43;;;;;;;10.74;63.76;101402.72;5042513;28;20036;-75
2021/05/02 09:08:51;;;;;;;7.63;6.35;;;;;;;10.84;63.87;101404.44;5030325;28;20046;-78
2021/05/02 09:11:30;;;;;;;9.88;7.07;;;;;;;10.77;62.21;101397.22;5009574;28;20119;-74
2021/05/02 09:13:56;;;;;;;8.80;7.00;;;;;;;10.61;63.77;101406.41;5025837;28;20033;-77
2021/05/02 09:16:21;;;;;;;11.00;7.65;;;;;;;10.53;64.24;101403.63;5046321;28;20033;-76
2021/05/02 09:18:49;;;;;;;10.77;8.23;;;;;;;10.52;64.42;101394.91;5015291;28;20091;-79
2021/05/02 09:21:31;;;;;;;11.73;8.63;;;;;;;10.54;64.17;101399.22;5051432;28;20461;-78
2021/05/02 09:23:59;;;;;;;11.55;8.77;;;;;;;10.74;65.16;101402.72;5019150;28;20037;-78
2021/05/02 09:26:27;;;;;;;8.82;7.55;;;;;;;11.00;65.34;101403.13;5051653;28;20045;-77
2021/05/02 09:28:55;;;;;;;9.32;8.32;;;;;;;10.93;63.18;101409.88;5042106;28;20060;-77
2021/05/02 09:31:30;;;;;;;11.68;8.35;;;;;;;10.77;64.81;101402.47;5013139;28;20037;-76
2021/05/02 09:34:16;;;;;;;9.93;7.97;;;;;;;11.15;64.85;101404.44;5005505;28;20550;-76
2021/05/02 09:36:56;;;;;;;10.95;8.35;;;;;;;11.23;63.33;101396.69;5012093;28;20531;-79
2021/05/02 09:39:41;;;;;;;7.70;6.90;;;;;;;11.49;61.36;101401.47;4996830;28;20044;-79
2021/05/02 09:42:40;;;;;;;9.07;7.07;;;;;;;12.08;62.33;101394.44;5015965;28;20071;-80
2021/05/02 09:45:10;;;;;;;9.13;6.80;;;;;;;12.29;59.78;101396.06;5028200;28;20057;-78
2021/05/02 09:47:41;;;;;;;7.45;6.22;;;;;;;12.37;60.36;101393.53;5028040;28;20060;-77
2021/05/02 09:50:23;;;;;;;6.57;5.22;;;;;;;12.20;60.41;101400.34;5012498;28;20393;-76
2021/05/02 09:52:55;;;;;;;6.78;5.72;;;;;;;12.57;58.84;101399.59;5028340;28;20052;-78
2021/05/02 09:55:31;;;;;;;;;;;;;;;12.51;57.36;101397.50;5039794;28;20048;-78
2021/05/02 09:58:25;;;;;;;9.07;5.50;;;;;;;12.22;60.45;101407.16;4988804;28;19916;-80
2021/05/02 10:00:50;;;;;;;;;;;;;;;11.96;59.08;101401.66;4997046;28;20110;-79
2021/05/02 10:03:18;;;;;;;8.13;5.75;;;;;;;11.96;59.45;101406.91;5008636;28;19972;-79
2021/05/02 10:05:56;;;;;;;6.95;5.60;;;;;;;11.67;58.72;101414.75;4990940;28;20042;-78
2021/05/02 10:08:24;;;;;;;5.80;4.72;;;;;;;11.53;60.34;101405.47;4999146;28;20053;-78
2021/05/02 10:10:51;;;;;;;6.30;4.72;;;;;;;11.23;59.08;101414.25;5002904;28;20141;-76
2021/05/02 10:13:17;;;;;;;7.60;4.70;;;;;;;11.17;60.01;101413.00;5004068;28;20033;-78
2021/05/02 10:15:43;;;;;;;6.88;5.05;;;;;;;11.09;58.51;101402.31;4975787;28;20050;-78
2021/05/02 10:18:09;;;;;;;6.38;5.15;;;;;;;10.90;60.68;101409.16;4976031;28;20030;-80
2021/05/02 10:20:34;;;;;;;5.93;4.40;;;;;;;11.10;60.75;101396.13;5013421;28;20040;-79
2021/05/02 10:23:02;;;;;;;6.88;4.65;;;;;;;11.41;61.56;101396.84;5008282;28;20042;-80
2021/05/02 10:25:27;;;;;;;4.70;4.25;;;;;;;12.14;58.99;101393.03;5029015;28;20681;-79
2021/05/02 10:27:54;;;;;;;5.90;4.32;;;;;;;12.59;55.38;101393.19;5013327;28;20132;-80
2021/05/02 10:30:37;;;;;;;6.03;4.60;;;;;;;13.01;55.29;101397.19;4996279;28;20044;-80
2021/05/02 10:33:11;;;;;;;5.57;4.50;;;;;;;13.13;55.67;101398.66;5011293;28;20128;-78
2021/05/02 10:35:51;;;;;;;6.15;4.00;;;;;;;13.02;53.36;101393.59;5019331;28;20053;-79
2021/05/02 10:38:20;;;;;;;5.13;3.80;;;;;;;12.78;54.84;101392.28;5024711;28;20535;-78
2021/05/02 10:40:46;;;;;;;4.93;3.92;;;;;;;12.49;56.14;101381.88;5016671;28;20053;-79
2021/05/02 10:43:27;;;;;;;3.60;3.30;;;;;;;11.89;55.99;101400.50;5024438;28;20541;-81
2021/05/02 10:45:54;;;;;;;4.18;3.40;;;;;;;11.74;58.98;101396.63;4995309;28;20042;-76
2021/05/02 10:48:23;;;;;;;3.72;3.30;;;;;;;11.69;58.15;101394.41;4995755;28;20057;-78
2021/05/02 10:50:50;;;;;;;5.47;3.42;;;;;;;11.62;59.27;101396.78;4992757;28;20054;-75
2021/05/02 10:53:21;;;;;;;3.92;3.50;;;;;;;11.62;58.94;101390.66;5029551;28;20045;-76
2021/05/02 10:56:00;;;;;;;4.57;3.30;;;;;;;11.41;58.47;101391.59;5036398;28;20081;-76
2021/05/02 10:58:28;;;;;;;4.45;3.83;;;;;;;11.28;56.77;101391.03;5011074;28;20041;-79
2021/05/02 11:01:02;;;;;;;5.28;3.70;;;;;;;11.44;58.47;101388.72;5030856;28;20049;-77
2021/05/02 11:03:37;;;;;;;4.10;3.70;;;;;;;11.59;58.12;101394.41;5011852;28;20050;-78
2021/05/02 11:06:05;;;;;;;5.80;3.70;;;;;;;11.77;55.84;101391.09;4995450;28;20049;-79
2021/05/02 11:08:50;;;;;;;18.67;5.65;;;;;;;11.92;55.55;101394.16;5012218;28;20195;-77
2021/05/02 11:14:13;;;;;;;6.88;4.00;;;;;;;11.90;58.09;101396.94;5028659;28;20071;-76
2021/05/02 11:16:44;;;;;;;5.05;3.70;;;;;;;11.79;53.92;101397.88;5001914;28;20045;-76
2021/05/02 11:19:12;;;;;;;4.07;3.47;;;;;;;11.59;56.28;101398.84;4993196;28;20124;-76
2021/05/02 11:21:46;;;;;;;5.32;3.13;;;;;;;11.71;55.39;101395.09;5005508;28;20053;-76
2021/05/02 11:24:16;;;;;;;3.78;3.20;;;;;;;11.86;54.73;101398.97;5017437;28;20403;-74
2021/05/02 11:29:40;;;;;;;3.83;3.28;;;;;;;11.82;55.29;101396.78;5035547;28;20515;-77
2021/05/02 11:32:07;;;;;;;4.78;3.13;;;;;;;12.17;55.73;101398.03;5034051;28;20052;-78
2021/05/02 11:34:58;;;;;;;4.72;3.67;;;;;;;12.25;55.07;101403.41;5046477;28;20049;-78
2021/05/02 11:37:42;;;;;;;3.92;3.50;;;;;;;12.37;56.22;101402.25;5035986;28;20044;-79
2021/05/02 11:40:33;;;;;;;5.88;3.97;;;;;;;12.36;57.79;101397.97;5041575;28;20041;-77
2021/05/02 11:43:01;;;;;;;4.82;4.03;;;;;;;12.35;56.62;101404.19;5021018;28;20052;-76
2021/05/02 11:45:44;;;;;;;6.13;4.30;;;;;;;12.30;56.48;101405.59;5005025;28;20041;-77
2021/05/02 11:48:31;;;;;;;5.25;4.00;;;;;;;12.08;58.29;101400.50;5006266;28;20489;-78
2021/05/02 11:51:05;;;;;;;4.40;4.00;;;;;;;12.12;56.72;101406.31;5032226;28;20134;-79
2021/05/02 11:53:47;;;;;;;5.28;3.70;;;;;;;12.02;55.41;101398.44;5024518;28;20049;-78
2021/05/02 11:56:25;;;;;;;4.80;3.38;;;;;;;11.95;56.11;101397.34;5035987;28;20049;-77
2021/05/02 11:58:53;;;;;;;3.95;3.35;;;;;;;12.02;56.18;101393.19;5004284;28;20048;-76
2021/05/02 12:01:24;;;;;;;5.13;3.67;;;;;;;11.92;57.50;101396.78;5035042;28;20128;-76
2021/05/02 12:03:50;;;;;;;4.47;3.40;;;;;;;11.92;58.55;101402.88;5023346;28;20038;-77
2021/05/02 12:06:31;;;;;;;5.32;3.65;;;;;;;11.82;58.28;101409.91;5023867;28;20105;-78
2021/05/02 12:08:58;;;;;;;4.32;3.60;;;;;;;11.74;58.99;101399.25;5027084;28;22189;-77
2021/05/02 12:11:25;;;;;;;17.80;5.80;;;;;;;12.14;56.72;101398.31;5001573;28;20124;-79
2021/05/02 12:13:56;;;;;;;3.25;2.95;;;;;;;12.95;56.52;101401.22;5035985;28;20140;-77
2021/05/02 12:16:24;;;;;;;5.22;4.40;;;;;;;13.22;55.30;101397.78;5012585;28;20037;-76
2021/05/02 12:19:04;;;;;;;7.25;5.25;;;;;;;13.11;58.78;101405.03;4991949;28;20137;-76
2021/05/02 12:21:31;;;;;;;5.35;4.85;;;;;;;13.55;59.36;101400.75;5007998;28;20109;-77
2021/05/02 12:24:06;;;;;;;6.55;4.80;;;;;;;13.16;56.04;101400.16;5036485;28;20053;-77